CSN2567 ZSCN-ZGOW
Flight info
| Callsign | CSN2567 |
|---|---|
| Flight time | N/A |
| Altitude | 31100 |
| Route | OSONO W19 PLT TEBON V36 SAPUT |
| Aircraft | B738/M-SDE2E3FGHIRWXY/LB1 |
Departure
| Time | 2026-04-17 13:00 |
|---|---|
| Airport | Nanchang Changbei International Airport (ZSCN) |
Arrival
| Time | N/A |
|---|---|
| Airport | Jieyang Chaoshan International Airport (ZGOW) |
| Time | Latitude | Longitude | Altitude | Speed | Heading |
|---|---|---|---|---|---|
| 2026-04-17 12:27 | 28.86612 | 115.90944 | 149 ft | 0 kts | 87° |
| 2026-04-17 12:41 | 28.86612 | 115.90943 | 147 ft | 1 kts | 87° |
| 2026-04-17 12:41 | 28.86611 | 115.90927 | 148 ft | 2 kts | 87° |
| 2026-04-17 12:41 | 28.86610 | 115.90910 | 148 ft | 2 kts | 88° |
| 2026-04-17 12:41 | 28.86610 | 115.90893 | 148 ft | 2 kts | 72° |
| 2026-04-17 12:42 | 28.86601 | 115.90879 | 148 ft | 2 kts | 38° |
| 2026-04-17 12:42 | 28.86587 | 115.90871 | 147 ft | 2 kts | 6° |
| 2026-04-17 12:42 | 28.86573 | 115.90873 | 147 ft | 2 kts | 352° |
| 2026-04-17 12:42 | 28.86558 | 115.90874 | 147 ft | 2 kts | 358° |
| 2026-04-17 12:43 | 28.86546 | 115.90875 | 147 ft | 0 kts | 355° |
| 2026-04-17 12:43 | 28.86545 | 115.90875 | 147 ft | 0 kts | 355° |
| 2026-04-17 12:48 | 28.86546 | 115.90875 | 149 ft | 0 kts | 356° |
| 2026-04-17 12:48 | 28.86545 | 115.90875 | 149 ft | 0 kts | 355° |
| 2026-04-17 12:51 | 28.86546 | 115.90875 | 149 ft | 1 kts | 355° |
| 2026-04-17 12:51 | 28.86585 | 115.90871 | 149 ft | 8 kts | 356° |
| 2026-04-17 12:51 | 28.86635 | 115.90868 | 149 ft | 7 kts | 356° |
| 2026-04-17 12:51 | 28.86677 | 115.90841 | 149 ft | 8 kts | 302° |
| 2026-04-17 12:52 | 28.86704 | 115.90775 | 149 ft | 9 kts | 294° |
| 2026-04-17 12:52 | 28.86726 | 115.90715 | 149 ft | 8 kts | 293° |
| 2026-04-17 12:52 | 28.86746 | 115.90662 | 149 ft | 7 kts | 293° |
| 2026-04-17 12:52 | 28.86751 | 115.90614 | 149 ft | 6 kts | 244° |
| 2026-04-17 12:53 | 28.86724 | 115.90590 | 149 ft | 5 kts | 204° |
| 2026-04-17 12:53 | 28.86675 | 115.90566 | 149 ft | 11 kts | 202° |
| 2026-04-17 12:53 | 28.86588 | 115.90524 | 149 ft | 17 kts | 204° |
| 2026-04-17 12:53 | 28.86463 | 115.90463 | 149 ft | 21 kts | 203° |
| 2026-04-17 12:54 | 28.86338 | 115.90402 | 149 ft | 16 kts | 203° |
| 2026-04-17 12:54 | 28.86237 | 115.90354 | 150 ft | 15 kts | 203° |
| 2026-04-17 12:54 | 28.86144 | 115.90308 | 149 ft | 14 kts | 203° |
| 2026-04-17 12:54 | 28.86059 | 115.90267 | 149 ft | 13 kts | 203° |
| 2026-04-17 12:55 | 28.85978 | 115.90228 | 149 ft | 14 kts | 203° |
| 2026-04-17 12:55 | 28.85879 | 115.90179 | 149 ft | 17 kts | 203° |
| 2026-04-17 12:55 | 28.85772 | 115.90128 | 150 ft | 16 kts | 203° |
| 2026-04-17 12:55 | 28.85673 | 115.90080 | 150 ft | 15 kts | 202° |
| 2026-04-17 12:56 | 28.85578 | 115.90034 | 150 ft | 15 kts | 203° |
| 2026-04-17 12:56 | 28.85475 | 115.89984 | 150 ft | 16 kts | 203° |
| 2026-04-17 12:56 | 28.85375 | 115.89935 | 150 ft | 15 kts | 203° |
| 2026-04-17 12:56 | 28.85282 | 115.89890 | 150 ft | 14 kts | 203° |
| 2026-04-17 12:57 | 28.85196 | 115.89849 | 150 ft | 13 kts | 203° |
| 2026-04-17 12:57 | 28.85117 | 115.89811 | 150 ft | 12 kts | 203° |
| 2026-04-17 12:57 | 28.85051 | 115.89778 | 150 ft | 7 kts | 204° |
| 2026-04-17 12:57 | 28.85030 | 115.89738 | 150 ft | 6 kts | 271° |
| 2026-04-17 12:58 | 28.85040 | 115.89699 | 150 ft | 5 kts | 291° |
| 2026-04-17 12:58 | 28.85053 | 115.89661 | 150 ft | 6 kts | 291° |
| 2026-04-17 12:58 | 28.85069 | 115.89621 | 150 ft | 5 kts | 302° |
| 2026-04-17 12:58 | 28.85095 | 115.89599 | 150 ft | 4 kts | 345° |
| 2026-04-17 12:59 | 28.85121 | 115.89603 | 150 ft | 0 kts | 20° |
| 2026-04-17 12:59 | 28.85123 | 115.89604 | 150 ft | 1 kts | 20° |
| 2026-04-17 12:59 | 28.85212 | 115.89646 | 150 ft | 41 kts | 23° |
| 2026-04-17 13:00 | 28.85689 | 115.89877 | 150 ft | 106 kts | 23° |
| 2026-04-17 13:00 | 28.86550 | 115.90287 | 174 ft | 157 kts | 22° |
| 2026-04-17 13:00 | 28.87559 | 115.90760 | 804 ft | 154 kts | 20° |
| 2026-04-17 13:00 | 28.88547 | 115.91156 | 1517 ft | 152 kts | 18° |
| 2026-04-17 13:01 | 28.89530 | 115.91557 | 2082 ft | 152 kts | 21° |
| 2026-04-17 13:01 | 28.90539 | 115.92044 | 2441 ft | 166 kts | 22° |
| 2026-04-17 13:01 | 28.91645 | 115.92578 | 2835 ft | 177 kts | 22° |
| 2026-04-17 13:01 | 28.92823 | 115.93137 | 3215 ft | 190 kts | 22° |
| 2026-04-17 13:02 | 28.94108 | 115.93750 | 3517 ft | 210 kts | 22° |
| 2026-04-17 13:02 | 28.95461 | 115.94399 | 4137 ft | 213 kts | 22° |
| 2026-04-17 13:02 | 28.96835 | 115.95065 | 4771 ft | 215 kts | 23° |
| 2026-04-17 13:02 | 28.98204 | 115.95737 | 5403 ft | 217 kts | 23° |
| 2026-04-17 13:03 | 28.99616 | 115.96425 | 5944 ft | 224 kts | 22° |
| 2026-04-17 13:03 | 29.01043 | 115.97101 | 6672 ft | 223 kts | 19° |
| 2026-04-17 13:03 | 29.02575 | 115.97391 | 7233 ft | 230 kts | 356° |
| 2026-04-17 13:03 | 29.04127 | 115.96953 | 7862 ft | 234 kts | 335° |
| 2026-04-17 13:04 | 29.05365 | 115.95772 | 8485 ft | 240 kts | 303° |
| 2026-04-17 13:04 | 29.05851 | 115.93949 | 9098 ft | 246 kts | 273° |
| 2026-04-17 13:04 | 29.05656 | 115.92011 | 9767 ft | 249 kts | 255° |
| 2026-04-17 13:04 | 29.04809 | 115.90326 | 10507 ft | 248 kts | 222° |
| 2026-04-17 13:05 | 29.03362 | 115.89318 | 11243 ft | 247 kts | 204° |
| 2026-04-17 13:05 | 29.01784 | 115.88591 | 12002 ft | 246 kts | 202° |
| 2026-04-17 13:05 | 29.00196 | 115.87858 | 12682 ft | 247 kts | 204° |
| 2026-04-17 13:05 | 28.98636 | 115.87088 | 13428 ft | 245 kts | 205° |
| 2026-04-17 13:06 | 28.97080 | 115.86288 | 14175 ft | 244 kts | 206° |
| 2026-04-17 13:06 | 28.95532 | 115.85487 | 14836 ft | 246 kts | 206° |
| 2026-04-17 13:06 | 28.93930 | 115.84693 | 15317 ft | 257 kts | 205° |
| 2026-04-17 13:06 | 28.92238 | 115.83881 | 15711 ft | 270 kts | 205° |
| 2026-04-17 13:07 | 28.90460 | 115.83029 | 16121 ft | 283 kts | 205° |
| 2026-04-17 13:07 | 28.88599 | 115.82135 | 16478 ft | 298 kts | 205° |
| 2026-04-17 13:07 | 28.86648 | 115.81196 | 16830 ft | 312 kts | 206° |
| 2026-04-17 13:07 | 28.84593 | 115.80204 | 17224 ft | 324 kts | 206° |
| 2026-04-17 13:08 | 28.82524 | 115.79207 | 17983 ft | 323 kts | 206° |
| 2026-04-17 13:08 | 28.80444 | 115.78207 | 18613 ft | 327 kts | 206° |
| 2026-04-17 13:08 | 28.78331 | 115.77192 | 19159 ft | 333 kts | 206° |
| 2026-04-17 13:08 | 28.76201 | 115.76168 | 19787 ft | 335 kts | 207° |
| 2026-04-17 13:09 | 28.74044 | 115.75128 | 20333 ft | 340 kts | 207° |
| 2026-04-17 13:09 | 28.71856 | 115.74071 | 20928 ft | 342 kts | 207° |
| 2026-04-17 13:09 | 28.69644 | 115.73002 | 21484 ft | 345 kts | 207° |
| 2026-04-17 13:09 | 28.67424 | 115.71930 | 22002 ft | 349 kts | 208° |
| 2026-04-17 13:10 | 28.65184 | 115.70850 | 22483 ft | 353 kts | 207° |
| 2026-04-17 13:10 | 28.62911 | 115.69756 | 23035 ft | 355 kts | 208° |
| 2026-04-17 13:10 | 28.60634 | 115.68661 | 23550 ft | 356 kts | 208° |
| 2026-04-17 13:10 | 28.58353 | 115.67567 | 24098 ft | 357 kts | 208° |
| 2026-04-17 13:11 | 28.56067 | 115.66469 | 24667 ft | 357 kts | 208° |
| 2026-04-17 13:11 | 28.53775 | 115.65369 | 25320 ft | 354 kts | 209° |
| 2026-04-17 13:11 | 28.51525 | 115.64292 | 26037 ft | 349 kts | 209° |
| 2026-04-17 13:11 | 28.49309 | 115.63231 | 26663 ft | 345 kts | 210° |
| 2026-04-17 13:12 | 28.47114 | 115.62177 | 27245 ft | 342 kts | 210° |
| 2026-04-17 13:12 | 28.42771 | 115.60115 | 28412 ft | 333 kts | 209° |
| 2026-04-17 13:12 | 28.41764 | 115.59711 | 29535 ft | 303 kts | 208° |